Time;durP1;ratioP1;P1;durP2;ratioP2;P2;SDS_P1;SDS_P2;PMS_P1;PMS_P2;Temp;Humidity;BMP_temperature;BMP_pressure;BME280_temperature;BME280_humidity;BME280_pressure;Samples;Min_cycle;Max_cycle;Signal;HPM_P1;HPM_P2
2023/09/16 00:02:07;;;;;;;49.90;47.63;;;;;;;13.59;100.00;101839.13;4971076;28;20477;-44
2023/09/16 00:04:35;;;;;;;53.50;51.30;;;;;;;13.58;100.00;101842.81;4970717;28;20524;-41
2023/09/16 00:07:03;;;;;;;52.73;50.33;;;;;;;13.55;100.00;101838.66;4970433;28;20972;-40
2023/09/16 00:09:32;;;;;;;57.20;54.93;;;;;;;13.53;100.00;101840.66;4970182;28;20446;-40
2023/09/16 00:12:00;;;;;;;51.90;49.70;;;;;;;13.50;100.00;101846.41;4968455;28;20527;-42
2023/09/16 00:14:29;;;;;;;60.57;57.97;;;;;;;13.48;100.00;101839.59;4968889;28;20922;-39
2023/09/16 00:17:00;;;;;;;57.53;55.13;;;;;;;13.48;100.00;101842.25;4969370;28;20553;-42
2023/09/16 00:19:28;;;;;;;63.93;61.13;;;;;;;13.48;100.00;101844.94;4970192;28;20509;-42
2023/09/16 00:21:57;;;;;;;63.47;60.87;;;;;;;13.48;100.00;101839.59;4971908;28;20427;-40
2023/09/16 00:24:25;;;;;;;60.80;58.30;;;;;;;13.47;100.00;101838.75;4972270;28;20438;-44
2023/09/16 00:26:53;;;;;;;67.97;65.07;;;;;;;13.51;100.00;101834.69;4974110;28;20559;-42
2023/09/16 00:29:20;;;;;;;62.97;60.40;;;;;;;13.51;100.00;101834.69;4970806;28;20551;-44
2023/09/16 00:31:49;;;;;;;58.57;56.17;;;;;;;13.51;100.00;101836.53;4971635;28;20565;-41
2023/09/16 00:34:19;;;;;;;64.60;61.90;;;;;;;13.52;100.00;101831.00;4971841;28;21165;-40
2023/09/16 00:36:47;;;;;;;62.70;60.10;;;;;;;13.52;100.00;101833.66;4971821;28;20747;-41
2023/09/16 00:39:15;;;;;;;62.83;60.17;;;;;;;13.54;100.00;101820.06;4971329;28;21005;-42
2023/09/16 00:41:43;;;;;;;64.27;61.70;;;;;;;13.53;100.00;101827.28;4971750;28;20473;-39
2023/09/16 00:44:11;;;;;;;65.60;62.80;;;;;;;13.54;100.00;101818.22;4971997;28;20851;-42
2023/09/16 00:46:38;;;;;;;63.07;60.33;;;;;;;13.54;100.00;101818.22;4971741;28;20435;-44
2023/09/16 00:49:06;;;;;;;68.27;65.50;;;;;;;13.50;100.00;101822.28;4971019;28;20899;-41
2023/09/16 00:51:40;;;;;;;76.90;74.00;;;;;;;13.48;100.00;101807.44;4968552;28;20506;-41
2023/09/16 00:54:08;;;;;;;67.13;64.43;;;;;;;13.45;100.00;101821.19;4967123;28;20441;-40
2023/09/16 00:56:36;;;;;;;71.73;68.83;;;;;;;13.41;100.00;101807.34;4971785;28;20807;-42
2023/09/16 00:59:04;;;;;;;69.63;66.90;;;;;;;13.39;100.00;101811.25;4971351;28;20470;-40
2023/09/16 01:01:32;;;;;;;72.33;69.63;;;;;;;13.38;100.00;101804.25;4968009;28;20922;-40
2023/09/16 01:04:00;;;;;;;74.03;71.30;;;;;;;13.36;100.00;101799.06;4971929;28;20516;-41
2023/09/16 01:06:28;;;;;;;77.60;74.70;;;;;;;13.35;100.00;101797.38;4971743;28;20435;-41
2023/09/16 01:08:57;;;;;;;73.87;70.97;;;;;;;13.32;100.00;101795.91;4970834;28;21017;-42
2023/09/16 01:11:25;;;;;;;72.50;69.80;;;;;;;13.30;100.00;101781.91;4971749;28;20879;-40
2023/09/16 01:13:53;;;;;;;77.97;75.10;;;;;;;13.28;100.00;101788.47;4971614;28;20942;-40
2023/09/16 01:16:30;;;;;;;78.07;75.17;;;;;;;13.28;100.00;101786.63;4971570;28;20441;-42
2023/09/16 01:19:06;;;;;;;74.50;71.70;;;;;;;13.30;100.00;101776.53;4970124;28;20462;-44
2023/09/16 01:21:34;;;;;;;73.00;70.10;;;;;;;13.30;100.00;101779.22;4971784;28;20439;-44
2023/09/16 01:24:17;;;;;;;73.20;70.33;;;;;;;13.36;100.00;101784.81;4971832;28;20530;-42
2023/09/16 01:26:47;;;;;;;73.80;71.10;;;;;;;13.35;100.00;101780.50;4971463;28;20525;-41
2023/09/16 01:29:16;;;;;;;76.03;73.07;;;;;;;13.36;100.00;101788.34;4970937;28;20899;-43
2023/09/16 01:31:45;;;;;;;73.00;70.03;;;;;;;13.39;100.00;101787.97;4971318;28;20922;-40
2023/09/16 01:34:21;;;;;;;76.33;73.27;;;;;;;13.41;100.00;101779.75;4971533;28;20439;-40
2023/09/16 01:36:52;;;;;;;74.73;71.70;;;;;;;13.43;100.00;101785.75;4969436;28;20461;-43
2023/09/16 01:39:22;;;;;;;74.40;71.70;;;;;;;13.45;100.00;101789.06;4970798;28;20463;-45
2023/09/16 01:41:52;;;;;;;77.07;73.93;;;;;;;13.50;100.00;101786.66;4974827;28;20423;-41
2023/09/16 01:44:20;;;;;;;71.13;68.50;;;;;;;13.52;100.00;101784.59;4975142;28;20442;-43
2023/09/16 01:46:48;;;;;;;70.10;67.30;;;;;;;13.54;100.00;101791.44;4974812;28;20594;-39
2023/09/16 01:49:16;;;;;;;74.43;71.33;;;;;;;13.56;100.00;101788.56;4967981;28;20826;-42
2023/09/16 01:51:43;;;;;;;73.63;70.37;;;;;;;13.57;100.00;101782.16;4974820;28;20892;-40
2023/09/16 01:54:11;;;;;;;71.90;69.10;;;;;;;13.59;100.00;101782.84;4975172;28;20855;-41
2023/09/16 01:56:39;;;;;;;72.17;69.37;;;;;;;13.57;100.00;101777.66;4974814;28;20545;-39
2023/09/16 01:59:08;;;;;;;75.70;72.90;;;;;;;13.56;100.00;101770.63;4973928;28;20559;-41
2023/09/16 02:01:35;;;;;;;75.63;72.83;;;;;;;13.56;100.00;101767.94;4974847;28;20930;-42
2023/09/16 02:04:03;;;;;;;77.37;74.47;;;;;;;13.57;100.00;101766.94;4974676;28;20427;-42
2023/09/16 02:06:31;;;;;;;79.23;75.93;;;;;;;13.56;100.00;101772.50;4974676;28;20436;-44
2023/09/16 02:08:59;;;;;;;85.23;82.10;;;;;;;13.54;100.00;101764.63;4973887;28;20521;-42
2023/09/16 02:11:26;;;;;;;81.83;78.73;;;;;;;13.52;100.00;101758.63;4974517;28;20434;-40
2023/09/16 02:13:54;;;;;;;81.33;78.03;;;;;;;13.52;100.00;101753.28;4974601;28;20474;-41
2023/09/16 02:16:23;;;;;;;83.90;80.80;;;;;;;13.52;100.00;101747.91;4974205;28;20514;-40
2023/09/16 02:18:50;;;;;;;86.20;83.07;;;;;;;13.52;100.00;101753.28;4973864;28;20463;-46
2023/09/16 02:21:19;;;;;;;87.60;84.50;;;;;;;13.53;100.00;101756.78;4974500;28;20441;-42
2023/09/16 02:23:46;;;;;;;93.30;90.00;;;;;;;13.51;100.00;101756.97;4974350;28;20494;-41
2023/09/16 02:26:14;;;;;;;87.00;84.00;;;;;;;13.50;100.00;101755.28;4978396;28;20434;-40
2023/09/16 02:28:42;;;;;;;88.43;84.87;;;;;;;13.49;100.00;101758.19;4975884;28;20725;-39
2023/09/16 02:31:10;;;;;;;90.60;87.20;;;;;;;13.48;100.00;101751.16;4974180;28;20537;-42
2023/09/16 02:33:39;;;;;;;88.80;85.60;;;;;;;13.49;100.00;101745.63;4974426;28;20482;-42
2023/09/16 02:36:07;;;;;;;91.40;88.10;;;;;;;13.48;100.00;101740.44;4973332;28;20439;-42
2023/09/16 02:38:35;;;;;;;94.27;90.80;;;;;;;13.48;100.00;101743.13;4973572;28;20557;-42
2023/09/16 02:41:03;;;;;;;90.43;87.03;;;;;;;13.48;100.00;101741.28;4973965;28;20843;-41
2023/09/16 02:43:31;;;;;;;93.77;90.30;;;;;;;13.49;100.00;101734.06;4973855;28;20527;-41
2023/09/16 02:45:58;;;;;;;87.57;84.37;;;;;;;13.51;100.00;101740.88;4973785;28;20945;-39
2023/09/16 02:48:26;;;;;;;91.67;88.37;;;;;;;13.49;100.00;101734.06;4973356;28;20471;-42
2023/09/16 02:50:55;;;;;;;95.53;92.10;;;;;;;13.51;100.00;101732.84;4973538;28;20435;-41
2023/09/16 02:53:23;;;;;;;93.80;90.30;;;;;;;13.51;100.00;101735.53;4973152;28;20506;-41
2023/09/16 02:55:51;;;;;;;104.17;100.27;;;;;;;13.50;100.00;101738.41;4973760;28;20525;-39
2023/09/16 02:58:18;;;;;;;95.70;92.00;;;;;;;13.46;100.00;101724.56;4966791;28;20475;-41
2023/09/16 03:00:47;;;;;;;103.47;99.67;;;;;;;13.48;100.00;101732.41;4973478;28;20516;-41
2023/09/16 03:03:15;;;;;;;93.33;89.80;;;;;;;13.49;100.00;101734.91;4973650;28;20518;-40
2023/09/16 03:05:45;;;;;;;89.57;86.40;;;;;;;13.52;100.00;101737.19;4973436;28;20431;-39
2023/09/16 03:08:14;;;;;;;92.10;88.70;;;;;;;13.53;100.00;101738.84;4973119;28;20466;-40
2023/09/16 03:10:44;;;;;;;94.27;90.77;;;;;;;13.54;100.00;101739.66;4973074;28;20467;-41
2023/09/16 03:13:11;;;;;;;93.80;90.40;;;;;;;13.53;100.00;101733.47;4966436;28;21036;-42
2023/09/16 03:15:44;;;;;;;95.80;92.40;;;;;;;13.49;100.00;101742.09;4973520;28;20439;-41
2023/09/16 03:18:12;;;;;;;99.80;96.03;;;;;;;13.45;100.00;101736.28;4970950;28;20459;-42
2023/09/16 03:20:40;;;;;;;102.83;99.13;;;;;;;13.47;100.00;101734.25;4973139;28;20439;-44
2023/09/16 03:23:08;;;;;;;101.67;98.07;;;;;;;13.45;100.00;101735.47;4973134;28;20435;-41
2023/09/16 03:25:36;;;;;;;102.80;99.20;;;;;;;13.43;100.00;101732.16;4973319;28;20439;-42
2023/09/16 03:28:04;;;;;;;104.80;101.10;;;;;;;13.39;100.00;101725.50;4972973;28;20554;-44
2023/09/16 03:30:32;;;;;;;104.07;100.20;;;;;;;13.40;100.00;101736.03;4973093;28;20442;-43
2023/09/16 03:33:00;;;;;;;109.90;106.10;;;;;;;13.35;100.00;101734.97;4972877;28;20481;-41
2023/09/16 03:35:28;;;;;;;116.20;111.97;;;;;;;13.29;100.00;101729.31;4973044;28;20439;-43
2023/09/16 03:37:58;;;;;;;111.83;108.00;;;;;;;13.29;100.00;101733.84;4972529;28;20467;-42
2023/09/16 03:40:26;;;;;;;109.40;105.50;;;;;;;13.29;100.00;101728.50;4972774;28;20479;-42
2023/09/16 03:42:56;;;;;;;109.80;105.70;;;;;;;13.29;100.00;101721.28;4972784;28;20526;-40
2023/09/16 03:45:24;;;;;;;105.20;101.20;;;;;;;13.24;100.00;101717.53;4973109;28;20906;-42
2023/09/16 03:47:56;;;;;;;116.40;112.30;;;;;;;13.23;100.00;101715.88;4970435;28;20473;-44
2023/09/16 03:50:24;;;;;;;112.77;108.77;;;;;;;13.22;100.00;101716.91;4972619;28;20443;-41
2023/09/16 03:52:52;;;;;;;116.40;112.30;;;;;;;13.17;100.00;101708.63;4972621;28;20487;-39
2023/09/16 03:55:20;;;;;;;115.60;111.70;;;;;;;13.13;100.00;101710.00;4972708;28;20435;-41
2023/09/16 03:57:47;;;;;;;119.53;115.20;;;;;;;13.12;100.00;101713.69;4972046;28;20853;-41
2023/09/16 04:00:17;;;;;;;132.53;127.83;;;;;;;13.09;100.00;101708.72;4972614;28;20926;-45
2023/09/16 04:02:44;;;;;;;132.73;128.30;;;;;;;13.08;100.00;101707.06;4972363;28;20465;-42
2023/09/16 04:05:13;;;;;;;134.97;130.40;;;;;;;13.06;100.00;101706.38;4969522;28;20518;-42
2023/09/16 04:07:41;;;;;;;132.80;128.40;;;;;;;13.03;100.00;101704.91;4972252;28;20462;-41
2023/09/16 04:10:09;;;;;;;137.10;132.60;;;;;;;13.01;100.00;101709.63;4972441;28;20434;-45
2023/09/16 04:12:37;;;;;;;138.53;133.23;;;;;;;12.95;100.00;101705.03;4972178;28;20434;-46
2023/09/16 04:15:07;;;;;;;128.33;123.83;;;;;;;12.96;100.00;101700.50;4972155;28;20440;-44
2023/09/16 04:17:36;;;;;;;125.13;120.37;;;;;;;12.98;100.00;101706.50;4971768;28;20463;-40
2023/09/16 04:20:05;;;;;;;124.80;120.50;;;;;;;13.01;100.00;101714.16;4971891;28;20493;-42
2023/09/16 04:22:33;;;;;;;126.03;121.33;;;;;;;13.00;100.00;101712.50;4972662;28;20749;-42
2023/09/16 04:25:01;;;;;;;132.63;127.93;;;;;;;13.01;100.00;101716.84;4972127;28;20433;-42
2023/09/16 04:27:29;;;;;;;123.60;119.30;;;;;;;13.01;100.00;101708.81;4971642;28;20465;-39
2023/09/16 04:29:56;;;;;;;129.00;124.20;;;;;;;13.00;100.00;101710.66;4969931;28;20518;-43
2023/09/16 04:32:24;;;;;;;127.23;122.83;;;;;;;13.00;100.00;101713.31;4972572;28;20466;-46
2023/09/16 04:34:57;;;;;;;135.73;130.87;;;;;;;12.99;100.00;101703.63;4972128;28;20838;-40
2023/09/16 04:37:25;;;;;;;141.13;135.70;;;;;;;12.92;100.00;101702.75;4971785;28;21024;-40
2023/09/16 04:39:53;;;;;;;130.30;125.70;;;;;;;13.01;100.00;101698.09;4971851;28;20525;-42
2023/09/16 04:42:21;;;;;;;138.67;133.53;;;;;;;12.98;100.00;101701.16;4971932;28;20442;-41
2023/09/16 04:44:48;;;;;;;144.13;139.00;;;;;;;12.98;100.00;101701.16;4972203;28;20431;-44
2023/09/16 04:47:17;;;;;;;136.47;131.33;;;;;;;12.99;100.00;101708.97;4971843;28;20892;-43
2023/09/16 04:49:48;;;;;;;134.70;130.03;;;;;;;12.98;100.00;101707.34;4971930;28;20435;-43
2023/09/16 04:52:17;;;;;;;137.57;132.80;;;;;;;12.99;100.00;101703.63;4967184;28;20459;-40
2023/09/16 04:54:45;;;;;;;131.20;126.53;;;;;;;13.04;100.00;101703.06;4971971;28;20471;-42
2023/09/16 04:57:13;;;;;;;140.53;135.63;;;;;;;13.06;100.00;101704.53;4971632;28;20482;-42
2023/09/16 04:59:45;;;;;;;133.37;128.40;;;;;;;13.13;100.00;101707.31;4971796;28;20994;-42
2023/09/16 05:02:12;;;;;;;133.50;128.60;;;;;;;13.16;100.00;101714.97;4972312;28;20431;-41
2023/09/16 05:04:40;;;;;;;128.77;124.23;;;;;;;13.19;100.00;101725.31;4971838;28;20459;-40
2023/09/16 05:07:08;;;;;;;125.70;121.30;;;;;;;13.25;100.00;101720.03;4971270;28;20458;-41
2023/09/16 05:09:37;;;;;;;132.77;127.93;;;;;;;13.30;100.00;101719.44;4971539;28;20438;-45
2023/09/16 05:12:06;;;;;;;131.30;126.50;;;;;;;13.39;100.00;101718.31;4972260;28;20518;-43
2023/09/16 05:14:33;;;;;;;130.87;126.17;;;;;;;13.45;100.00;101719.38;4972035;28;20470;-40
2023/09/16 05:17:01;;;;;;;128.00;123.50;;;;;;;13.52;100.00;101709.56;4975484;28;20549;-42
2023/09/16 05:19:30;;;;;;;130.20;125.50;;;;;;;13.59;100.00;101705.09;4975658;28;20521;-42
2023/09/16 05:21:58;;;;;;;129.87;125.17;;;;;;;13.65;100.00;101710.50;4975598;28;20449;-42
2023/09/16 05:24:31;;;;;;;126.17;121.57;;;;;;;13.74;100.00;101719.22;4976032;28;20427;-42
2023/09/16 05:27:00;;;;;;;126.13;121.73;;;;;;;13.79;100.00;101716.81;4975525;28;20459;-42
2023/09/16 05:29:28;;;;;;;122.07;117.47;;;;;;;13.86;100.00;101721.19;4974620;28;20462;-42
2023/09/16 05:31:56;;;;;;;122.30;118.07;;;;;;;13.95;100.00;101713.84;4975439;28;20945;-40
2023/09/16 05:34:24;;;;;;;120.37;116.17;;;;;;;14.05;100.00;101724.22;4975305;28;20492;-41
2023/09/16 05:36:52;;;;;;;120.00;115.60;;;;;;;14.15;100.00;101714.81;4975603;28;20455;-40
2023/09/16 05:39:19;;;;;;;104.60;100.70;;;;;;;14.62;100.00;101722.13;4974939;28;20463;-40
2023/09/16 05:41:49;;;;;;;67.53;64.73;;;;;;;15.51;100.00;101730.91;4975350;28;20902;-40
2023/09/16 05:44:20;;;;;;;50.03;47.63;;;;;;;16.44;100.00;101735.22;4975341;28;20945;-45
2023/09/16 05:46:48;;;;;;;40.13;38.27;;;;;;;17.27;100.00;101728.03;4975305;28;20439;-40
2023/09/16 05:49:16;;;;;;;32.93;31.43;;;;;;;18.04;100.00;101728.53;4974626;28;20467;-41
2023/09/16 05:51:44;;;;;;;29.60;28.10;;;;;;;18.77;100.00;101729.44;4975417;28;20466;-43
2023/09/16 05:54:13;;;;;;;32.93;31.50;;;;;;;19.26;100.00;101711.31;4975775;28;20514;-39
2023/09/16 05:56:42;;;;;;;44.30;42.40;;;;;;;19.46;100.00;101698.34;4980571;28;20505;-43
2023/09/16 05:59:10;;;;;;;40.77;38.70;;;;;;;19.98;100.00;101695.84;4977799;28;20466;-40
2023/09/16 06:01:39;;;;;;;37.90;36.40;;;;;;;20.39;100.00;101703.84;4975035;28;20438;-40
2023/09/16 06:04:08;;;;;;;37.00;35.47;;;;;;;20.83;100.00;101699.59;4979964;28;20768;-41
2023/09/16 06:06:36;;;;;;;34.23;32.63;;;;;;;21.32;100.00;101681.84;4980652;28;20525;-41
2023/09/16 06:09:04;;;;;;;36.40;34.67;;;;;;;21.74;100.00;101674.97;4978870;28;20982;-41
2023/09/16 06:11:32;;;;;;;41.67;39.80;;;;;;;21.83;100.00;101665.28;4979111;28;20473;-42
2023/09/16 06:14:00;;;;;;;37.60;35.97;;;;;;;22.22;100.00;101655.28;4977404;28;20537;-41
2023/09/16 06:16:27;;;;;;;38.73;37.13;;;;;;;22.64;100.00;101657.47;4977941;28;20443;-40
2023/09/16 06:18:56;;;;;;;38.93;37.03;;;;;;;22.89;100.00;101655.88;4977134;28;20918;-43
2023/09/16 06:21:24;;;;;;;34.17;32.77;;;;;;;23.23;100.00;101655.66;4978959;28;20438;-41
2023/09/16 06:23:52;;;;;;;37.77;36.27;;;;;;;23.55;100.00;101660.06;4970755;28;20859;-41
2023/09/16 06:26:19;;;;;;;32.33;31.13;;;;;;;23.56;100.00;101650.00;4969636;28;20438;-41
2023/09/16 06:28:47;;;;;;;31.23;29.90;;;;;;;23.65;100.00;101651.16;4973498;28;20562;-41
2023/09/16 06:31:15;;;;;;;33.60;32.20;;;;;;;23.30;100.00;101640.75;4972957;28;20427;-40
2023/09/16 06:33:43;;;;;;;33.30;31.80;;;;;;;23.37;100.00;101646.81;4974623;28;20489;-41
2023/09/16 06:36:12;;;;;;;26.17;25.07;;;;;;;23.43;100.00;101644.97;4978894;28;20485;-40
2023/09/16 06:38:40;;;;;;;27.53;26.43;;;;;;;23.41;100.00;101645.25;4978710;28;20985;-42
2023/09/16 06:41:07;;;;;;;26.27;25.07;;;;;;;23.61;100.00;101639.94;4979919;28;20438;-42
2023/09/16 06:43:35;;;;;;;24.00;22.60;;;;;;;23.64;100.00;101641.31;4981401;28;20447;-41
2023/09/16 06:46:03;;;;;;;23.07;21.90;;;;;;;23.59;100.00;101644.84;4980784;28;20715;-41
2023/09/16 06:48:31;;;;;;;20.07;19.20;;;;;;;23.38;100.00;101637.56;4981483;28;20463;-40
2023/09/16 06:50:58;;;;;;;18.57;17.57;;;;;;;23.44;100.00;101639.28;4981685;28;20450;-40
2023/09/16 06:53:28;;;;;;;15.13;14.23;;;;;;;23.29;100.00;101638.31;4981711;28;20485;-40
2023/09/16 06:55:56;;;;;;;13.20;12.50;;;;;;;23.49;100.00;101644.75;4979466;28;20801;-41
2023/09/16 06:58:23;;;;;;;14.80;13.93;;;;;;;23.50;100.00;101648.31;4978834;28;20461;-40
2023/09/16 07:00:51;;;;;;;13.30;12.60;;;;;;;23.11;100.00;101640.31;4979171;28;20521;-41
2023/09/16 07:03:19;;;;;;;13.90;13.00;;;;;;;22.53;100.00;101648.34;4978929;28;20434;-40
2023/09/16 07:05:47;;;;;;;15.17;14.27;;;;;;;22.27;100.00;101647.22;4979023;28;20438;-39
2023/09/16 07:08:15;;;;;;;14.10;13.20;;;;;;;22.12;100.00;101652.44;4976427;28;20456;-40
2023/09/16 07:10:44;;;;;;;12.20;11.60;;;;;;;22.22;100.00;101649.84;4976844;28;20521;-39
2023/09/16 07:13:12;;;;;;;13.50;12.70;;;;;;;22.16;100.00;101648.13;4977333;28;20434;-40
2023/09/16 07:15:39;;;;;;;13.77;12.97;;;;;;;21.91;100.00;101650.53;4970121;28;20478;-39
2023/09/16 07:18:07;;;;;;;14.20;12.90;;;;;;;21.70;100.00;101649.38;4978634;28;20478;-42
2023/09/16 07:20:36;;;;;;;14.47;13.63;;;;;;;21.37;100.00;101644.75;4973572;28;20491;-40
2023/09/16 07:23:04;;;;;;;15.00;14.13;;;;;;;21.12;100.00;101648.91;4972491;28;20434;-41
2023/09/16 07:25:31;;;;;;;14.63;13.83;;;;;;;20.92;100.00;101643.91;4976352;28;20442;-42
2023/09/16 07:28:02;;;;;;;15.10;14.20;;;;;;;20.83;100.00;101650.78;4969656;28;20476;-39
2023/09/16 07:30:30;;;;;;;12.77;12.00;;;;;;;20.83;100.00;101653.50;4971191;28;20434;-44
2023/09/16 07:32:58;;;;;;;12.90;12.13;;;;;;;21.03;100.00;101661.22;4971648;28;20851;-42
2023/09/16 07:35:26;;;;;;;12.57;11.83;;;;;;;21.13;100.00;101651.41;4974389;28;20525;-46
2023/09/16 07:37:53;;;;;;;13.27;12.47;;;;;;;21.27;100.00;101646.47;4973933;28;20493;-44
2023/09/16 07:40:21;;;;;;;14.57;13.57;;;;;;;21.42;100.00;101647.56;4975194;28;20451;-40
2023/09/16 07:42:49;;;;;;;14.67;13.67;;;;;;;21.58;100.00;101647.81;4974653;28;20465;-40
2023/09/16 07:45:18;;;;;;;13.97;12.87;;;;;;;21.53;100.00;101645.84;4973487;28;20434;-44
2023/09/16 07:47:45;;;;;;;13.87;12.50;;;;;;;21.75;100.00;101635.03;4971972;28;20509;-41
2023/09/16 07:50:13;;;;;;;14.17;13.20;;;;;;;22.06;100.00;101623.56;4969815;28;20518;-42
2023/09/16 07:52:42;;;;;;;13.90;13.00;;;;;;;21.87;100.00;101619.47;4972093;28;20434;-40
2023/09/16 07:55:10;;;;;;;11.23;10.43;;;;;;;22.00;100.00;101625.41;4971662;28;21015;-41
2023/09/16 07:57:37;;;;;;;12.53;11.73;;;;;;;22.05;100.00;101620.03;4971006;28;20525;-42
2023/09/16 08:00:07;;;;;;;13.20;12.00;;;;;;;21.87;100.00;101616.75;4968053;28;20446;-41
2023/09/16 08:02:36;;;;;;;13.50;12.80;;;;;;;21.75;100.00;101614.13;4972708;28;20779;-41
2023/09/16 08:05:05;;;;;;;13.47;12.53;;;;;;;21.64;100.00;101625.09;4966475;28;20489;-42
2023/09/16 08:07:34;;;;;;;13.30;12.53;;;;;;;21.58;100.00;101615.22;4970829;28;21142;-41
2023/09/16 08:10:02;;;;;;;12.30;11.60;;;;;;;21.57;100.00;101624.44;4969182;28;20438;-39
2023/09/16 08:12:30;;;;;;;13.60;12.70;;;;;;;21.41;100.00;101632.31;4971987;28;20434;-41
2023/09/16 08:14:58;;;;;;;12.80;12.00;;;;;;;21.34;100.00;101636.28;4971050;28;20445;-41
2023/09/16 08:17:26;;;;;;;13.57;12.17;;;;;;;21.30;100.00;101637.84;4971326;28;20494;-40
2023/09/16 08:19:56;;;;;;;12.50;11.50;;;;;;;21.30;100.00;101629.69;4970210;28;20442;-40
2023/09/16 08:22:24;;;;;;;14.20;13.27;;;;;;;21.32;100.00;101633.00;4971320;28;20497;-46
2023/09/16 08:24:52;;;;;;;14.07;13.10;;;;;;;21.50;100.00;101630.06;4971910;28;20461;-40
2023/09/16 08:27:21;;;;;;;13.13;12.20;;;;;;;21.87;100.00;101620.28;4970638;28;20458;-41
2023/09/16 08:29:49;;;;;;;12.70;11.90;;;;;;;21.85;100.00;101625.16;4971100;28;20473;-42
2023/09/16 08:32:17;;;;;;;11.57;10.87;;;;;;;21.60;100.00;101627.47;4972602;28;20479;-41
2023/09/16 08:34:44;;;;;;;14.27;12.97;;;;;;;21.74;100.00;101617.13;4971773;28;20441;-41
2023/09/16 08:37:13;;;;;;;11.40;10.73;;;;;;;22.19;100.00;101627.81;4970990;28;20478;-41
2023/09/16 08:39:41;;;;;;;13.70;12.50;;;;;;;22.05;100.00;101617.31;4971464;28;20438;-42
2023/09/16 08:42:15;;;;;;;13.77;12.97;;;;;;;22.14;100.00;101617.69;4971115;28;20502;-43
2023/09/16 08:44:45;;;;;;;12.67;11.87;;;;;;;22.33;100.00;101623.66;4967845;28;20801;-41
2023/09/16 08:47:21;;;;;;;14.03;13.00;;;;;;;22.28;100.00;101621.66;4967116;28;20541;-43
2023/09/16 08:49:52;;;;;;;11.80;11.10;;;;;;;22.50;100.00;101625.22;4968730;28;20438;-42
2023/09/16 08:52:25;;;;;;;11.17;10.40;;;;;;;22.65;100.00;101623.78;4974756;28;20470;-46
2023/09/16 08:54:54;;;;;;;12.33;11.00;;;;;;;22.52;100.00;101624.94;4975786;28;20517;-41
2023/09/16 08:57:22;;;;;;;11.70;10.80;;;;;;;22.47;100.00;101625.72;4971798;28;20490;-42
2023/09/16 08:59:52;;;;;;;11.33;10.63;;;;;;;22.75;100.00;101613.84;4974630;28;21021;-41
2023/09/16 09:02:21;;;;;;;12.17;11.17;;;;;;;22.72;100.00;101616.25;4975505;28;20438;-41
2023/09/16 09:04:48;;;;;;;11.80;11.10;;;;;;;22.77;100.00;101613.56;4975201;28;20438;-42
2023/09/16 09:07:17;;;;;;;12.20;11.20;;;;;;;22.74;100.00;101609.47;4971934;28;20454;-45
2023/09/16 09:09:46;;;;;;;12.30;11.40;;;;;;;22.85;100.00;101607.69;4974676;28;20462;-42
2023/09/16 09:12:14;;;;;;;10.77;10.17;;;;;;;22.81;100.00;101599.22;4975538;28;20806;-43
2023/09/16 09:14:43;;;;;;;11.87;11.00;;;;;;;22.81;100.00;101612.81;4969253;28;20438;-40
2023/09/16 09:17:12;;;;;;;11.37;10.70;;;;;;;22.68;100.00;101609.66;4973065;28;20553;-44
2023/09/16 09:19:40;;;;;;;10.80;10.10;;;;;;;22.78;100.00;101604.34;4970808;28;21287;-42
2023/09/16 09:22:09;;;;;;;9.43;8.83;;;;;;;23.00;100.00;101607.81;4969905;28;21173;-40
2023/09/16 09:24:36;;;;;;;10.73;9.83;;;;;;;23.05;100.00;101607.88;4967740;28;20918;-42
2023/09/16 09:27:06;;;;;;;11.53;10.73;;;;;;;23.10;100.00;101608.75;4975043;28;20457;-45
2023/09/16 09:29:34;;;;;;;10.57;9.87;;;;;;;23.07;100.00;101605.72;4974141;28;21157;-40
2023/09/16 09:32:02;;;;;;;10.87;10.17;;;;;;;23.11;100.00;101595.97;4974224;28;20438;-43
2023/09/16 09:34:30;;;;;;;10.50;9.67;;;;;;;23.04;100.00;101596.19;4974185;28;20434;-41
2023/09/16 09:36:58;;;;;;;10.07;9.47;;;;;;;23.06;100.00;101593.19;4974379;28;20849;-43
2023/09/16 09:39:25;;;;;;;10.17;9.50;;;;;;;23.13;100.00;101597.34;4973812;28;20462;-41
2023/09/16 09:41:53;;;;;;;11.13;10.33;;;;;;;23.15;100.00;101592.44;4974187;28;20441;-40
2023/09/16 09:44:23;;;;;;;10.90;9.90;;;;;;;23.12;100.00;101584.81;4973930;28;20446;-40
2023/09/16 09:46:51;;;;;;;10.73;10.07;;;;;;;23.30;100.00;101591.75;4974037;28;20747;-42
2023/09/16 09:49:19;;;;;;;10.27;9.20;;;;;;;23.48;100.00;101583.22;4972972;28;20459;-43
2023/09/16 09:51:48;;;;;;;11.27;9.50;;;;;;;23.56;100.00;101593.63;4973899;28;20867;-45
2023/09/16 09:54:17;;;;;;;9.30;8.70;;;;;;;23.73;100.00;101588.00;4969981;28;21006;-41
2023/09/16 09:56:45;;;;;;;9.60;9.00;;;;;;;23.86;100.00;101581.28;4968571;28;20470;-43
2023/09/16 09:59:16;;;;;;;10.20;9.10;;;;;;;24.07;100.00;101583.03;4973604;28;20497;-44
2023/09/16 10:01:46;;;;;;;8.97;8.47;;;;;;;24.21;100.00;101586.94;4973943;28;20445;-41
2023/09/16 10:04:14;;;;;;;10.00;9.30;;;;;;;24.10;97.68;101580.59;4973054;28;20441;-40
2023/09/16 10:06:41;;;;;;;9.50;8.90;;;;;;;24.26;100.00;101581.47;4972158;28;20521;-41
2023/09/16 10:09:09;;;;;;;9.37;8.60;;;;;;;24.21;100.00;101581.47;4972644;28;20466;-45
2023/09/16 10:11:38;;;;;;;10.17;9.20;;;;;;;24.30;97.70;101582.59;4968442;28;20801;-39
2023/09/16 10:14:06;;;;;;;10.00;9.17;;;;;;;24.41;98.96;101572.53;4973802;28;20494;-39
2023/09/16 10:16:35;;;;;;;8.90;8.37;;;;;;;24.67;97.16;101568.81;4972949;28;21216;-39
2023/09/16 10:19:05;;;;;;;10.00;9.40;;;;;;;24.73;96.67;101570.41;4969939;28;20545;-39
2023/09/16 10:21:35;;;;;;;8.63;8.13;;;;;;;24.79;98.43;101574.78;4971121;28;20469;-39
2023/09/16 10:24:03;;;;;;;9.73;9.00;;;;;;;24.94;95.01;101568.59;4973594;28;20470;-42
2023/09/16 10:26:31;;;;;;;9.80;9.07;;;;;;;25.04;94.87;101565.84;4968221;28;20482;-38
2023/09/16 10:29:00;;;;;;;9.93;9.23;;;;;;;25.16;94.00;101564.50;4972817;28;20508;-43
2023/09/16 10:31:29;;;;;;;10.20;9.50;;;;;;;24.89;92.89;101565.84;4972482;28;20978;-41
2023/09/16 10:33:58;;;;;;;9.07;8.37;;;;;;;24.77;92.25;101564.16;4973630;28;20802;-44
2023/09/16 10:36:29;;;;;;;8.63;8.03;;;;;;;24.77;93.52;101557.88;4972593;28;21031;-41
2023/09/16 10:38:58;;;;;;;7.87;7.37;;;;;;;24.68;92.46;101562.25;4972296;28;20549;-41
2023/09/16 10:41:26;;;;;;;7.80;7.20;;;;;;;24.97;92.91;101563.38;4971958;28;20434;-45
2023/09/16 10:43:55;;;;;;;8.07;7.47;;;;;;;24.78;92.65;101556.81;4968565;28;20533;-42
2023/09/16 10:46:23;;;;;;;8.10;7.57;;;;;;;25.01;96.08;101556.31;4969566;28;20474;-43
2023/09/16 10:48:52;;;;;;;7.00;6.50;;;;;;;25.29;95.42;101549.47;4972904;28;20477;-40
2023/09/16 10:51:23;;;;;;;8.83;8.20;;;;;;;25.51;90.04;101547.28;4972440;28;20442;-43
2023/09/16 10:53:59;;;;;;;9.40;8.70;;;;;;;25.67;89.04;101551.63;4972939;28;20470;-44
2023/09/16 10:56:33;;;;;;;8.17;7.60;;;;;;;25.73;88.31;101549.69;4969363;28;20458;-41
2023/09/16 10:59:02;;;;;;;8.43;7.73;;;;;;;25.55;84.30;101556.56;4970501;28;20529;-41
2023/09/16 11:01:36;;;;;;;8.30;7.73;;;;;;;25.44;86.04;101554.91;4972036;28;20846;-46
2023/09/16 11:04:10;;;;;;;8.30;7.60;;;;;;;25.71;87.04;101549.16;4973039;28;20945;-42
2023/09/16 11:06:38;;;;;;;7.57;7.07;;;;;;;25.59;83.59;101548.63;4966087;28;20434;-44
2023/09/16 11:09:07;;;;;;;7.13;6.30;;;;;;;25.51;85.97;101544.53;4972763;28;20494;-41